createdAt,value
2023-01-12T00:01:57.547Z,68.10
2023-01-12T00:04:24.650Z,68.21
2023-01-12T00:06:51.429Z,68.20
2023-01-12T00:09:18.310Z,68.16
2023-01-12T00:11:45.092Z,67.74
2023-01-12T00:14:11.871Z,67.74
2023-01-12T00:16:39.079Z,67.92
2023-01-12T00:19:17.372Z,67.84
2023-01-12T00:21:58.794Z,67.79
2023-01-12T00:24:39.724Z,67.85
2023-01-12T00:27:13.244Z,67.80
2023-01-12T00:29:40.426Z,68.02
2023-01-12T00:32:10.013Z,67.72
2023-01-12T00:34:36.807Z,68.10
2023-01-12T00:37:04.467Z,67.98
2023-01-12T00:39:31.510Z,67.72
2023-01-12T00:42:16.574Z,67.95
2023-01-12T00:45:02.818Z,67.96
2023-01-12T00:47:29.585Z,67.95
2023-01-12T00:49:56.346Z,68.08
2023-01-12T00:52:31.850Z,67.93
2023-01-12T00:55:00.323Z,67.92
2023-01-12T00:57:28.471Z,67.90
2023-01-12T00:59:57.795Z,67.91
2023-01-12T01:02:24.680Z,68.22
2023-01-12T01:04:51.482Z,68.14
2023-01-12T01:07:21.392Z,68.16
2023-01-12T01:09:48.167Z,68.05
2023-01-12T01:12:14.930Z,67.90
2023-01-12T01:14:41.711Z,67.92
2023-01-12T01:17:08.497Z,68.46
2023-01-12T01:19:35.326Z,68.03
2023-01-12T01:22:02.172Z,68.19
2023-01-12T01:24:29.187Z,68.27
2023-01-12T01:26:55.952Z,68.30
2023-01-12T01:29:22.778Z,68.04
2023-01-12T01:31:49.547Z,67.98
2023-01-12T01:34:16.294Z,68.05
2023-01-12T01:36:43.058Z,68.01
2023-01-12T01:39:09.965Z,67.80
2023-01-12T01:41:36.840Z,68.22
2023-01-12T01:44:26.181Z,68.16
2023-01-12T01:47:12.710Z,67.97
2023-01-12T01:49:47.958Z,68.00
2023-01-12T01:52:27.569Z,68.37
2023-01-12T01:55:23.954Z,68.27
2023-01-12T01:58:01.317Z,68.19
2023-01-12T02:00:28.381Z,67.73
2023-01-12T02:02:56.585Z,67.97
2023-01-12T02:05:26.980Z,68.00
2023-01-12T02:07:54.300Z,67.78
2023-01-12T02:10:21.829Z,68.09
2023-01-12T02:13:09.070Z,67.71
2023-01-12T02:16:23.283Z,67.80
2023-01-12T02:19:29.178Z,68.16
2023-01-12T02:22:38.394Z,68.29
2023-01-12T02:25:33.287Z,68.08
2023-01-12T02:28:26.491Z,68.38
2023-01-12T02:31:40.563Z,68.34
2023-01-12T02:34:34.983Z,68.45
2023-01-12T02:37:31.739Z,68.40
2023-01-12T02:40:34.259Z,68.56
2023-01-12T02:43:24.267Z,68.69
2023-01-12T02:46:14.649Z,68.55
2023-01-12T02:49:14.747Z,68.57
2023-01-12T02:52:00.215Z,68.95
2023-01-12T02:54:28.593Z,68.57
2023-01-12T02:57:01.686Z,68.70
2023-01-12T02:59:33.209Z,68.47
2023-01-12T03:02:10.925Z,68.46
2023-01-12T03:04:38.007Z,68.53
2023-01-12T03:07:04.633Z,68.56
2023-01-12T03:09:49.340Z,68.39
2023-01-12T03:12:33.776Z,68.63
2023-01-12T03:15:07.083Z,68.53
2023-01-12T03:17:59.951Z,68.49
2023-01-12T03:20:43.972Z,68.68
2023-01-12T03:23:21.792Z,68.52
2023-01-12T03:25:52.297Z,68.42
2023-01-12T03:28:21.214Z,68.72
2023-01-12T03:31:00.401Z,68.58
2023-01-12T03:33:27.368Z,68.53
2023-01-12T03:36:28.597Z,68.63
2023-01-12T03:39:28.972Z,68.91
2023-01-12T03:42:11.632Z,69.05
2023-01-12T03:45:06.964Z,69.23
2023-01-12T03:47:35.247Z,68.96
2023-01-12T03:50:09.740Z,68.77
2023-01-12T03:52:39.927Z,69.02
2023-01-12T03:55:11.531Z,68.83
2023-01-12T03:57:39.656Z,68.85
2023-01-12T04:00:11.124Z,68.78
2023-01-12T04:02:37.949Z,68.95
2023-01-12T04:05:07.985Z,68.96
2023-01-12T04:07:34.741Z,68.96
2023-01-12T04:10:01.576Z,68.72
2023-01-12T04:12:28.318Z,68.78
2023-01-12T04:14:55.128Z,68.73
2023-01-12T04:17:25.065Z,68.90
2023-01-12T04:19:52.286Z,68.65
2023-01-12T04:22:38.393Z,68.80
2023-01-12T04:25:07.958Z,68.75
2023-01-12T04:27:36.118Z,68.93
2023-01-12T04:30:03.719Z,68.89
2023-01-12T04:32:30.473Z,68.90
2023-01-12T04:34:57.263Z,69.01
2023-01-12T04:37:24.045Z,69.08
2023-01-12T04:39:50.824Z,69.36
2023-01-12T04:42:35.996Z,69.25
2023-01-12T04:45:02.755Z,69.39
2023-01-12T04:47:29.518Z,69.30
2023-01-12T04:49:56.286Z,69.40
2023-01-12T04:52:23.065Z,69.73
2023-01-12T04:54:49.837Z,69.83
2023-01-12T04:57:16.604Z,69.78
2023-01-12T04:59:43.363Z,69.56
2023-01-12T05:02:10.215Z,69.62
2023-01-12T05:04:37.010Z,69.93
2023-01-12T05:07:03.820Z,69.77
2023-01-12T05:09:49.137Z,70.27
2023-01-12T05:12:15.942Z,70.06
2023-01-12T05:14:42.697Z,69.90
2023-01-12T05:17:09.463Z,70.05
2023-01-12T05:19:36.228Z,70.08
2023-01-12T05:22:03.061Z,69.99
2023-01-12T05:24:29.865Z,70.14
2023-01-12T05:26:56.634Z,69.95
2023-01-12T05:29:23.418Z,70.28
2023-01-12T05:31:50.180Z,70.37
2023-01-12T05:34:19.287Z,70.21
2023-01-12T05:36:47.447Z,70.28
2023-01-12T05:39:14.327Z,70.14
2023-01-12T05:42:01.382Z,70.41
2023-01-12T05:44:28.300Z,70.54
2023-01-12T05:46:55.107Z,70.58
2023-01-12T05:49:21.861Z,70.55
2023-01-12T05:51:48.645Z,70.63
2023-01-12T05:54:15.420Z,70.33
2023-01-12T05:56:43.330Z,70.58
2023-01-12T05:59:11.076Z,70.46
2023-01-12T06:01:40.270Z,70.51
2023-01-12T06:04:07.124Z,70.75
2023-01-12T06:06:34.253Z,70.57
2023-01-12T06:09:01.566Z,70.65
2023-01-12T06:11:47.228Z,70.77
2023-01-12T06:14:14.625Z,70.61
2023-01-12T06:16:43.474Z,70.79
2023-01-12T06:19:13.037Z,70.80
2023-01-12T06:21:40.471Z,70.53
2023-01-12T06:24:07.709Z,70.78
2023-01-12T06:26:34.478Z,70.94
2023-01-12T06:29:01.257Z,70.84
2023-01-12T06:31:28.127Z,70.70
2023-01-12T06:33:54.923Z,70.89
2023-01-12T06:36:21.789Z,70.96
2023-01-12T06:38:48.611Z,71.07
2023-01-12T06:41:37.975Z,70.99
2023-01-12T06:44:04.972Z,70.63
2023-01-12T06:46:31.750Z,70.66
2023-01-12T06:48:59.266Z,70.96
2023-01-12T06:51:26.551Z,70.93
2023-01-12T06:53:53.533Z,71.09
2023-01-12T06:56:20.623Z,71.20
2023-01-12T06:58:48.149Z,70.93
2023-01-12T07:01:15.247Z,70.75
2023-01-12T07:03:42.019Z,70.84
2023-01-12T07:06:08.840Z,71.00
2023-01-12T07:08:35.913Z,71.01
2023-01-12T07:11:12.519Z,71.13
2023-01-12T07:13:39.396Z,70.97
2023-01-12T07:16:06.705Z,70.95
2023-01-12T07:18:33.611Z,70.85
2023-01-12T07:21:06.141Z,70.84
2023-01-12T07:23:32.920Z,70.88
2023-01-12T07:25:59.724Z,70.88
2023-01-12T07:28:26.602Z,70.83
2023-01-12T07:30:53.442Z,70.71
2023-01-12T07:33:20.226Z,70.80
2023-01-12T07:35:47.018Z,70.75
2023-01-12T07:38:13.810Z,70.88
2023-01-12T07:40:40.593Z,70.85
2023-01-12T07:43:09.230Z,70.88
2023-01-12T07:45:36.335Z,70.88
2023-01-12T07:48:03.432Z,70.70
2023-01-12T07:50:30.271Z,70.52
2023-01-12T07:53:02.005Z,70.86
2023-01-12T07:55:30.302Z,70.74
2023-01-12T07:58:07.100Z,70.66
2023-01-12T08:00:34.268Z,70.47
2023-01-12T08:03:10.790Z,70.89
2023-01-12T08:05:39.265Z,70.74
2023-01-12T08:08:06.781Z,70.81
2023-01-12T08:10:33.544Z,70.89
2023-01-12T08:13:00.298Z,70.92
2023-01-12T08:15:29.308Z,70.90
2023-01-12T08:18:05.787Z,70.69
2023-01-12T08:20:35.379Z,71.01
2023-01-12T08:23:25.906Z,70.76
2023-01-12T08:25:59.791Z,71.06
2023-01-12T08:28:35.899Z,70.96
2023-01-12T08:31:03.087Z,71.14
2023-01-12T08:33:30.384Z,71.17
2023-01-12T08:35:57.265Z,71.06
2023-01-12T08:38:24.055Z,71.20
2023-01-12T08:41:09.137Z,70.92
2023-01-12T08:43:54.493Z,70.90
2023-01-12T08:46:21.286Z,71.16
2023-01-12T08:48:48.100Z,71.10
2023-01-12T08:51:14.853Z,71.32
2023-01-12T08:53:41.627Z,71.25
2023-01-12T08:56:09.107Z,71.03
2023-01-12T08:58:35.852Z,71.17
2023-01-12T09:01:12.168Z,71.09
2023-01-12T09:03:39.898Z,71.29
2023-01-12T09:06:40.461Z,71.20
2023-01-12T09:09:11.373Z,71.13
2023-01-12T09:11:39.978Z,71.30
2023-01-12T09:14:06.877Z,71.11
2023-01-12T09:16:34.070Z,71.30
2023-01-12T09:19:01.223Z,71.32
2023-01-12T09:21:29.632Z,71.19
2023-01-12T09:23:57.149Z,71.26
2023-01-12T09:26:32.584Z,71.11
2023-01-12T09:29:01.194Z,71.04
2023-01-12T09:31:29.803Z,70.98
2023-01-12T09:33:57.050Z,71.14
2023-01-12T09:36:27.624Z,71.18
2023-01-12T09:38:55.184Z,71.00
2023-01-12T09:41:51.138Z,71.05
2023-01-12T09:44:53.912Z,71.14
2023-01-12T09:47:53.438Z,71.00
2023-01-12T09:50:28.641Z,70.92
2023-01-12T09:53:03.549Z,71.03
2023-01-12T09:55:57.733Z,71.15
2023-01-12T09:59:07.587Z,71.06
2023-01-12T10:01:36.345Z,71.30
2023-01-12T10:04:05.597Z,71.03
2023-01-12T10:06:33.449Z,70.99
2023-01-12T10:09:07.284Z,70.93
2023-01-12T10:12:19.954Z,70.77
2023-01-12T10:14:56.399Z,70.92
2023-01-12T10:17:52.367Z,70.73
2023-01-12T10:20:30.645Z,70.73
2023-01-12T10:23:09.611Z,70.78
2023-01-12T10:25:47.449Z,70.58
2023-01-12T10:28:22.043Z,70.69
2023-01-12T10:30:48.872Z,70.51
2023-01-12T10:33:28.043Z,70.47
2023-01-12T10:35:58.345Z,70.57
2023-01-12T10:38:39.097Z,70.63
2023-01-12T10:41:18.284Z,70.24
2023-01-12T10:44:00.237Z,70.37
2023-01-12T10:46:31.575Z,70.43
2023-01-12T10:49:22.580Z,70.49
2023-01-12T10:52:00.637Z,70.29
2023-01-12T10:54:32.077Z,70.53
2023-01-12T10:57:16.691Z,70.54
2023-01-12T10:59:52.338Z,70.48
2023-01-12T11:02:19.280Z,70.40
2023-01-12T11:04:52.378Z,70.61
2023-01-12T11:07:26.905Z,70.75
2023-01-12T11:09:54.637Z,70.62
2023-01-12T11:12:37.146Z,70.59
2023-01-12T11:15:09.617Z,70.65
2023-01-12T11:17:50.233Z,70.86
2023-01-12T11:20:47.586Z,70.67
2023-01-12T11:23:25.160Z,71.06
2023-01-12T11:25:53.434Z,70.93
2023-01-12T11:28:42.859Z,70.92
2023-01-12T11:31:38.847Z,71.26
2023-01-12T11:34:33.019Z,71.13
2023-01-12T11:37:12.188Z,71.13
2023-01-12T11:39:41.377Z,71.39
2023-01-12T11:42:39.743Z,71.09
2023-01-12T11:45:45.430Z,71.33
2023-01-12T11:48:23.914Z,71.39
2023-01-12T11:50:52.563Z,71.32
2023-01-12T11:53:23.832Z,71.29
2023-01-12T11:56:36.867Z,71.46
2023-01-12T11:59:12.940Z,71.46
2023-01-12T12:02:11.795Z,71.33
2023-01-12T12:05:41.267Z,71.42
2023-01-12T12:08:19.847Z,71.65
2023-01-12T12:11:11.307Z,71.64
2023-01-12T12:14:28.858Z,71.56
2023-01-12T12:17:11.168Z,71.67
2023-01-12T12:20:10.273Z,71.53
2023-01-12T12:23:29.658Z,71.60
2023-01-12T12:26:24.484Z,71.62
2023-01-12T12:29:03.454Z,71.53
2023-01-12T12:31:56.436Z,71.49
2023-01-12T12:34:49.162Z,71.33
2023-01-12T12:37:37.349Z,71.38
2023-01-12T12:40:12.475Z,71.41
2023-01-12T12:43:08.395Z,71.24
2023-01-12T12:45:51.448Z,71.17
2023-01-12T12:49:10.551Z,71.35
2023-01-12T12:51:39.418Z,71.27
2023-01-12T12:54:12.982Z,71.06
2023-01-12T12:56:39.799Z,71.14
2023-01-12T12:59:07.213Z,70.99
2023-01-12T13:01:33.970Z,70.95
2023-01-12T13:04:06.301Z,70.49
2023-01-12T13:06:38.316Z,70.97
2023-01-12T13:09:27.831Z,70.90
2023-01-12T13:11:57.457Z,70.81
2023-01-12T13:14:41.051Z,70.78
2023-01-12T13:17:20.138Z,70.76
2023-01-12T13:20:08.340Z,70.79
2023-01-12T13:22:50.522Z,70.87
2023-01-12T13:25:19.169Z,70.77
2023-01-12T13:28:02.244Z,70.84
2023-01-12T13:30:32.088Z,70.92
2023-01-12T13:33:15.459Z,70.86
2023-01-12T13:36:05.335Z,70.72
2023-01-12T13:38:43.813Z,70.76
2023-01-12T13:41:13.335Z,70.71
2023-01-12T13:43:57.098Z,70.80
2023-01-12T13:46:49.169Z,70.89
2023-01-12T13:49:33.028Z,71.00
2023-01-12T13:52:04.385Z,71.24
2023-01-12T13:54:33.399Z,70.90
2023-01-12T13:57:10.504Z,70.77
2023-01-12T13:59:38.579Z,71.11
2023-01-12T14:02:17.741Z,70.74
2023-01-12T14:05:18.794Z,70.79
2023-01-12T14:08:32.264Z,70.83
2023-01-12T14:11:21.150Z,71.48
2023-01-12T14:14:40.195Z,71.32
2023-01-12T14:18:00.630Z,71.29
2023-01-12T14:20:31.148Z,71.42
2023-01-12T14:23:23.561Z,71.39
2023-01-12T14:26:13.303Z,71.47
2023-01-12T14:28:43.574Z,71.48
2023-01-12T14:31:36.825Z,71.52
2023-01-12T14:34:05.263Z,71.81
2023-01-12T14:36:42.137Z,71.80
2023-01-12T14:39:17.059Z,71.87
2023-01-12T14:42:07.141Z,71.49
2023-01-12T14:44:57.476Z,71.86
2023-01-12T14:47:33.872Z,71.94
2023-01-12T14:50:19.063Z,71.98
2023-01-12T14:52:47.240Z,72.04
2023-01-12T14:55:38.798Z,72.46
2023-01-12T14:58:06.318Z,72.13
2023-01-12T15:00:44.963Z,71.75
2023-01-12T15:03:31.857Z,72.05
2023-01-12T15:06:03.210Z,72.15
2023-01-12T15:08:57.790Z,72.02
2023-01-12T15:11:35.091Z,72.03
2023-01-12T15:14:05.427Z,72.21
2023-01-12T15:16:50.782Z,72.05
2023-01-12T15:19:55.805Z,72.28
2023-01-12T15:22:46.292Z,72.13
2023-01-12T15:25:37.844Z,72.25
2023-01-12T15:28:07.018Z,72.22
2023-01-12T15:30:38.338Z,72.32
2023-01-12T15:33:06.071Z,72.30
2023-01-12T15:35:33.525Z,72.39
2023-01-12T15:38:00.333Z,72.40
2023-01-12T15:40:27.920Z,72.20
2023-01-12T15:42:55.159Z,72.16
2023-01-12T15:45:35.225Z,71.94
2023-01-12T15:48:03.460Z,71.82
2023-01-12T15:50:31.515Z,72.08
2023-01-12T15:53:01.067Z,71.94
2023-01-12T15:55:31.186Z,71.88
2023-01-12T15:57:58.110Z,71.92
2023-01-12T16:00:25.100Z,71.65
2023-01-12T16:02:53.866Z,71.68
2023-01-12T16:05:26.958Z,71.77
2023-01-12T16:07:54.627Z,71.66
2023-01-12T16:10:21.951Z,71.61
2023-01-12T16:12:48.795Z,71.54
2023-01-12T16:15:22.084Z,71.15
2023-01-12T16:17:49.962Z,71.46
2023-01-12T16:20:19.806Z,71.38
2023-01-12T16:22:47.202Z,71.52
2023-01-12T16:25:15.048Z,71.39
2023-01-12T16:27:41.946Z,71.41
2023-01-12T16:30:13.953Z,71.37
2023-01-12T16:32:45.684Z,71.30
2023-01-12T16:35:13.624Z,71.33
2023-01-12T16:37:40.482Z,71.37
2023-01-12T16:40:08.096Z,71.59
2023-01-12T16:42:34.868Z,71.01
2023-01-12T16:45:01.630Z,71.23
2023-01-12T16:47:28.399Z,71.43
2023-01-12T16:49:55.171Z,71.04
2023-01-12T16:52:22.304Z,71.25
2023-01-12T16:54:49.209Z,71.17
2023-01-12T16:57:18.350Z,71.27
2023-01-12T16:59:45.357Z,71.28
2023-01-12T17:02:16.947Z,71.26
2023-01-12T17:04:44.859Z,71.30
2023-01-12T17:07:12.154Z,71.19
2023-01-12T17:09:39.781Z,71.41
2023-01-12T17:12:06.920Z,71.23
2023-01-12T17:14:34.595Z,71.24
2023-01-12T17:17:05.791Z,71.24
2023-01-12T17:19:34.829Z,71.36
2023-01-12T17:22:02.902Z,71.28
2023-01-12T17:24:31.259Z,71.33
2023-01-12T17:26:58.379Z,71.62
2023-01-12T17:29:26.848Z,71.48
2023-01-12T17:31:56.518Z,71.78
2023-01-12T17:34:23.577Z,71.60
2023-01-12T17:36:50.460Z,71.50
2023-01-12T17:39:17.237Z,71.75
2023-01-12T17:42:02.374Z,71.54
2023-01-12T17:44:30.207Z,71.50
2023-01-12T17:46:57.381Z,71.54
2023-01-12T17:49:24.379Z,71.63
2023-01-12T17:51:51.443Z,71.75
2023-01-12T17:54:18.335Z,71.82
2023-01-12T17:56:45.609Z,71.71
2023-01-12T17:59:19.120Z,71.68
2023-01-12T18:01:47.328Z,71.71
2023-01-12T18:04:15.207Z,71.87
2023-01-12T18:06:42.715Z,71.87
2023-01-12T18:09:11.695Z,71.83
2023-01-12T18:11:39.450Z,71.84
2023-01-12T18:14:06.876Z,71.86
2023-01-12T18:16:33.809Z,71.93
2023-01-12T18:19:06.218Z,71.91
2023-01-12T18:21:34.477Z,71.90
2023-01-12T18:24:02.008Z,71.95
2023-01-12T18:26:35.711Z,71.86
2023-01-12T18:29:04.932Z,71.87
2023-01-12T18:31:33.428Z,72.19
2023-01-12T18:34:09.974Z,71.92
2023-01-12T18:36:39.913Z,71.92
2023-01-12T18:39:09.186Z,71.91
2023-01-12T18:41:55.386Z,71.93
2023-01-12T18:44:23.451Z,72.05
2023-01-12T18:47:08.650Z,72.11
2023-01-12T18:49:36.327Z,72.01
2023-01-12T18:52:22.944Z,72.07
2023-01-12T18:54:51.714Z,72.07
2023-01-12T18:57:23.950Z,72.17
2023-01-12T19:00:00.072Z,72.08
2023-01-12T19:02:27.278Z,72.27
2023-01-12T19:05:12.372Z,72.05
2023-01-12T19:08:04.492Z,72.28
2023-01-12T19:10:32.642Z,72.25
2023-01-12T19:13:18.477Z,72.17
2023-01-12T19:16:03.796Z,72.24
2023-01-12T19:18:30.618Z,72.24
2023-01-12T19:21:15.738Z,72.24
2023-01-12T19:24:01.031Z,72.28
2023-01-12T19:26:46.062Z,72.25
2023-01-12T19:29:12.853Z,72.38
2023-01-12T19:31:39.639Z,72.37
2023-01-12T19:34:06.490Z,72.39
2023-01-12T19:36:33.332Z,72.37
2023-01-12T19:39:02.079Z,72.40
2023-01-12T19:41:47.298Z,72.38
2023-01-12T19:44:14.042Z,72.67
2023-01-12T19:46:40.896Z,72.40
2023-01-12T19:49:08.011Z,72.60
2023-01-12T19:51:34.758Z,72.47
2023-01-12T19:54:01.566Z,72.42
2023-01-12T19:56:28.346Z,72.51
2023-01-12T19:58:55.235Z,72.42
2023-01-12T20:01:23.143Z,72.44
2023-01-12T20:03:50.980Z,72.30
2023-01-12T20:06:18.137Z,72.54
2023-01-12T20:08:44.901Z,72.33
2023-01-12T20:11:12.153Z,72.28
2023-01-12T20:13:39.037Z,72.47
2023-01-12T20:16:08.956Z,72.32
2023-01-12T20:18:36.115Z,72.51
2023-01-12T20:21:08.644Z,72.28
2023-01-12T20:23:35.458Z,72.33
2023-01-12T20:26:07.688Z,72.36
2023-01-12T20:28:35.020Z,72.46
2023-01-12T20:31:01.918Z,72.39
2023-01-12T20:33:28.739Z,72.48
2023-01-12T20:35:55.757Z,72.52
2023-01-12T20:38:22.646Z,72.60
2023-01-12T20:40:49.948Z,72.39
2023-01-12T20:43:16.796Z,72.54
2023-01-12T20:45:44.122Z,72.79
2023-01-12T20:48:13.954Z,72.61
2023-01-12T20:50:45.406Z,72.41
2023-01-12T20:53:13.532Z,72.39
2023-01-12T20:55:50.584Z,72.21
2023-01-12T20:58:18.758Z,72.51
2023-01-12T21:00:45.988Z,72.60
2023-01-12T21:03:12.961Z,72.60
2023-01-12T21:05:47.398Z,72.46
2023-01-12T21:08:15.813Z,72.51
2023-01-12T21:10:52.692Z,72.58
2023-01-12T21:13:20.974Z,72.50
2023-01-12T21:15:47.842Z,72.82
2023-01-12T21:18:14.638Z,72.77
2023-01-12T21:20:43.227Z,72.66
2023-01-12T21:23:11.347Z,72.61
2023-01-12T21:25:43.365Z,72.62
2023-01-12T21:28:10.679Z,72.83
2023-01-12T21:30:38.847Z,72.73
2023-01-12T21:33:05.858Z,72.75
2023-01-12T21:35:33.006Z,72.76
2023-01-12T21:37:59.926Z,72.50
2023-01-12T21:40:26.751Z,72.67
2023-01-12T21:43:08.555Z,72.65
2023-01-12T21:45:42.029Z,72.64
2023-01-12T21:48:10.575Z,72.67
2023-01-12T21:50:37.895Z,72.95
2023-01-12T21:53:06.470Z,72.62
2023-01-12T21:55:34.340Z,72.65
2023-01-12T21:58:02.510Z,72.69
2023-01-12T22:00:30.022Z,72.61
2023-01-12T22:02:57.464Z,72.67
2023-01-12T22:05:25.418Z,72.69
2023-01-12T22:07:52.261Z,72.71
2023-01-12T22:10:19.587Z,72.48
2023-01-12T22:12:48.293Z,72.81
2023-01-12T22:15:15.237Z,72.79
2023-01-12T22:17:42.705Z,72.79
2023-01-12T22:20:11.084Z,72.72
2023-01-12T22:22:38.698Z,72.63
2023-01-12T22:25:10.134Z,72.84
2023-01-12T22:27:38.198Z,72.86
2023-01-12T22:30:06.422Z,72.88
2023-01-12T22:32:33.181Z,72.95
2023-01-12T22:34:59.983Z,72.85
2023-01-12T22:37:30.753Z,72.89
2023-01-12T22:39:57.592Z,72.98
2023-01-12T22:42:46.880Z,72.97
2023-01-12T22:45:14.086Z,73.01
2023-01-12T22:47:47.952Z,72.96
2023-01-12T22:50:15.132Z,73.26
2023-01-12T22:52:41.982Z,73.25
2023-01-12T22:55:09.355Z,73.38
2023-01-12T22:57:36.114Z,73.39
2023-01-12T23:00:04.079Z,73.34
2023-01-12T23:02:49.972Z,73.16
2023-01-12T23:05:17.069Z,73.39
2023-01-12T23:07:44.198Z,73.26
2023-01-12T23:10:11.371Z,73.26
2023-01-12T23:12:38.365Z,73.11
2023-01-12T23:15:06.216Z,73.17
2023-01-12T23:17:33.411Z,73.16
2023-01-12T23:20:00.534Z,73.17
2023-01-12T23:22:31.689Z,73.13
2023-01-12T23:24:58.676Z,73.06
2023-01-12T23:27:25.664Z,73.09
2023-01-12T23:29:52.662Z,73.14
2023-01-12T23:32:19.682Z,72.96
2023-01-12T23:34:46.740Z,72.88
2023-01-12T23:37:13.725Z,73.12
2023-01-12T23:39:40.808Z,73.13
2023-01-12T23:42:07.769Z,73.27
2023-01-12T23:44:34.794Z,73.32
2023-01-12T23:47:03.319Z,72.90
2023-01-12T23:49:30.336Z,73.05
2023-01-12T23:51:57.372Z,73.02
2023-01-12T23:54:24.363Z,72.93
2023-01-12T23:56:53.400Z,72.98
2023-01-12T23:59:20.443Z,73.04
